IDBO2: Little River, Idabel, OK

Data processed at Sun Sep 23 2018 22:02


All information presented herein is the property of the government of the United States of America and may be revised or deleted at any time without prior notice.
Dissemination of this information without the expressed written consent of the Public Affairs Office, Tulsa District U.S. Army Corps of Engineers is strictly prohibited.
These data are gathered electronically and, as presented, have not undergone any form of quality control. These data are not guaranteed to be valid or correct.
Go to home page.
Go to station list.
Go to home page.

Upstream stations:

Downstream station:
Previous Day
Next Day
Current Day
    
SHEF ID:       IDBO2     Little River blw Lukfata Creek
STATION TYPE:  

               PRECIP     STAGE  RIV-FLOW  BAT-LOAD
                   in        ft       cfs      volt
              Ccp-Rev   Ccp-Rev   Ccp-Rev   Ccp-Rev
(US/Central)
09/23 00:00      0.01      6.24       321     12.81
09/23 01:00      0.00      6.31       342     12.81
09/23 02:00      0.16      6.37       359     12.73
09/23 03:00      0.25      6.51       400     12.73
09/23 04:00      0.19      6.71       460     12.73
09/23 05:00      0.46      6.96       540     12.73
09/23 06:00      0.87      7.59       766     12.73
09/23 07:00      0.03      8.27      1027     12.73
09/23 08:00      0.03      9.11      1372     12.73
09/23 09:00      0.00      9.76      1659     12.73
09/23 10:00      0.00     10.27      1895     12.81
09/23 11:00      0.00     10.71      2104     12.89
09/23 12:00      0.00     11.09      2289     13.21
09/23 13:00      0.00     11.45      2467     13.44
09/23 14:00      0.00     11.74      2612     13.44
09/23 15:00      0.00     11.99      2739     13.53
09/23 16:00      0.00     12.20      2846     13.44
09/23 17:00      0.00     12.36      2929     13.53
09/23 18:00      0.00     12.48      2991     13.53
09/23 19:00      0.00     12.58      3043     13.21
09/23 20:00      0.00     12.64      3075     13.05
09/23 21:00      0.00     12.68      3096     12.97
09/23 22:00      ----      ----      ----      ----
09/23 23:00      ----      ----      ----      ----